map of GAN home
Great Circle Mapper logo
GAN - Airport
Location
City:  Gan, Gan Island, Maldives
Name:Gan International Airport
ICAO:VRMG
IATA:GAN

Details
Type:Airport (Aerodrome, Airfield)
Use:Public/Civil, International (customs port of entry)
Latitude:041'36"S (-0.693332)
Longitude:7309'20"E (73.155556)
Elevation:6 ft (2 m)
Variation:4.25W (WMM2015 magnetic declination)
0.08 annual change
Runways:1
Longest:8698 × 148 ft (2651 × 45 m), paved

Time
Time Zone:UTC+5
Local Time:

Weather
TAF:VRMG 300500Z 3006/0112 21006KT 9999 FEW018TCU
TEMPO 3008/3014 5000 SHRA SCT016 FEW017CB

Related Locations
Nearby:
Farthest:SEII: 11346 mi / 18259 km
Puerto Villamil [General Villamil], Isabela Island, W, EC

Find:

   beyond  
but within

Other Information
Maps:
NOTAMs:
Links:
Sources:

  
flag of Maldives   

Airport Diagram

Airport diagram for GAN

Airport diagram PDF from AIP Maldives

Sectional Chart

Flight Planning
at skyvector.com

Satellite Image

Google Maps Satellite view

 

Copyright © 2004-2016 Karl L. Swartz. All rights reserved.
The Great Circle Mapper name and logo are trademarks of the Great Circle Mapper.
All other trademarks mentioned herein belong to their respective owners.
Please see credits for attibutions and further copyright information.

  Follow gcmap on Facebook Follow gcmap on Twitter Follow gcmap on Google+ GCmap on LinkedIn

hCard Microformat

Geo Microformat